createdAt,value
2022-10-04T00:02:04.862Z,101460.19
2022-10-04T00:04:53.143Z,101452.78
2022-10-04T00:07:34.405Z,101455.19
2022-10-04T00:10:24.226Z,101454.75
2022-10-04T00:13:07.525Z,101463.19
2022-10-04T00:15:37.896Z,101455.75
2022-10-04T00:18:22.999Z,101455.88
2022-10-04T00:20:53.571Z,101456.91
2022-10-04T00:23:44.322Z,101462.16
2022-10-04T00:26:23.983Z,101461.44
2022-10-04T00:28:51.946Z,101456.91
2022-10-04T00:31:26.179Z,101460.50
2022-10-04T00:34:08.356Z,101454.28
2022-10-04T00:36:54.222Z,101458.13
2022-10-04T00:39:40.597Z,101457.69
2022-10-04T00:42:47.945Z,101455.16
2022-10-04T00:45:33.947Z,101455.25
2022-10-04T00:48:18.204Z,101461.25
2022-10-04T00:51:14.357Z,101455.75
2022-10-04T00:54:30.868Z,101449.19
2022-10-04T00:57:43.047Z,101448.97
2022-10-04T01:00:19.184Z,101446.28
2022-10-04T01:03:00.704Z,101451.59
2022-10-04T01:05:37.491Z,101443.94
2022-10-04T01:08:27.514Z,101442.84
2022-10-04T01:11:06.124Z,101444.63
2022-10-04T01:13:59.256Z,101446.03
2022-10-04T01:16:33.359Z,101453.66
2022-10-04T01:19:29.794Z,101454.66
2022-10-04T01:22:16.525Z,101454.03
2022-10-04T01:24:45.922Z,101456.38
2022-10-04T01:27:36.753Z,101452.94
2022-10-04T01:30:14.226Z,101453.75
2022-10-04T01:32:41.875Z,101449.81
2022-10-04T01:35:13.891Z,101451.59
2022-10-04T01:37:41.370Z,101450.03
2022-10-04T01:40:10.929Z,101447.78
2022-10-04T01:42:49.853Z,101450.47
2022-10-04T01:45:35.349Z,101451.53
2022-10-04T01:48:24.634Z,101447.03
2022-10-04T01:51:04.508Z,101445.94
2022-10-04T01:53:41.691Z,101455.56
2022-10-04T01:56:23.288Z,101453.28
2022-10-04T01:59:04.290Z,101448.56
2022-10-04T02:02:06.420Z,101446.50
2022-10-04T02:04:38.882Z,101447.19
2022-10-04T02:07:15.515Z,101445.63
2022-10-04T02:09:47.496Z,101439.31
2022-10-04T02:12:19.433Z,101438.19
2022-10-04T02:14:53.408Z,101437.28
2022-10-04T02:17:32.845Z,101446.28
2022-10-04T02:20:01.718Z,101431.19
2022-10-04T02:22:29.122Z,101438.16
2022-10-04T02:24:57.791Z,101435.34
2022-10-04T02:27:31.053Z,101436.50
2022-10-04T02:30:05.853Z,101438.75
2022-10-04T02:32:52.645Z,101442.13
2022-10-04T02:35:20.466Z,101436.69
2022-10-04T02:38:37.887Z,101440.56
2022-10-04T02:41:34.725Z,101432.91
2022-10-04T02:44:51.570Z,101433.56
2022-10-04T02:47:29.587Z,101428.41
2022-10-04T02:50:16.726Z,101431.16
2022-10-04T02:52:50.394Z,101424.34
2022-10-04T02:55:29.365Z,101425.16
2022-10-04T02:57:59.671Z,101425.53
2022-10-04T03:00:31.978Z,101428.84
2022-10-04T03:03:28.123Z,101427.50
2022-10-04T03:06:12.938Z,101423.50
2022-10-04T03:09:00.837Z,101421.84
2022-10-04T03:11:35.306Z,101436.31
2022-10-04T03:14:08.072Z,101432.72
2022-10-04T03:16:40.254Z,101435.84
2022-10-04T03:19:08.903Z,101439.44
2022-10-04T03:21:38.222Z,101443.84
2022-10-04T03:24:07.412Z,101445.59
2022-10-04T03:26:42.493Z,101438.81
2022-10-04T03:29:14.029Z,101436.06
2022-10-04T03:31:58.159Z,101440.22
2022-10-04T03:34:39.295Z,101447.69
2022-10-04T03:37:19.236Z,101444.63
2022-10-04T03:39:52.356Z,101449.53
2022-10-04T03:42:22.940Z,101445.25
2022-10-04T03:44:56.196Z,101443.56
2022-10-04T03:47:31.244Z,101447.69
2022-10-04T03:50:34.218Z,101440.16
2022-10-04T03:53:24.189Z,101435.72
2022-10-04T03:55:52.881Z,101442.75
2022-10-04T03:58:21.241Z,101445.59
2022-10-04T04:01:25.403Z,101440.22
2022-10-04T04:04:16.902Z,101437.22
2022-10-04T04:07:03.363Z,101432.94
2022-10-04T04:09:48.119Z,101442.78
2022-10-04T04:12:40.669Z,101446.94
2022-10-04T04:15:12.210Z,101446.66
2022-10-04T04:17:54.399Z,101439.09
2022-10-04T04:20:37.278Z,101448.00
2022-10-04T04:23:16.024Z,101446.22
2022-10-04T04:25:49.523Z,101454.50
2022-10-04T04:28:27.124Z,101451.28
2022-10-04T04:31:24.217Z,101456.16
2022-10-04T04:34:25.202Z,101456.78
2022-10-04T04:36:59.218Z,101455.47
2022-10-04T04:39:40.894Z,101453.66
2022-10-04T04:42:10.698Z,101455.72
2022-10-04T04:45:15.510Z,101459.91
2022-10-04T04:47:50.712Z,101457.06
2022-10-04T04:50:32.776Z,101458.56
2022-10-04T04:53:14.453Z,101470.88
2022-10-04T04:56:02.917Z,101459.16
2022-10-04T04:58:47.816Z,101462.84
2022-10-04T05:01:41.723Z,101460.94
2022-10-04T05:04:12.803Z,101450.94
2022-10-04T05:07:09.950Z,101454.63
2022-10-04T05:09:38.813Z,101453.47
2022-10-04T05:12:22.598Z,101451.91
2022-10-04T05:14:53.531Z,101453.28
2022-10-04T05:17:26.615Z,101458.50
2022-10-04T05:19:59.332Z,101454.78
2022-10-04T05:22:28.585Z,101463.88
2022-10-04T05:25:13.344Z,101455.75
2022-10-04T05:27:44.806Z,101459.72
2022-10-04T05:31:02.309Z,101458.44
2022-10-04T05:36:58.949Z,101461.03
2022-10-04T05:39:56.941Z,101465.00
2022-10-04T05:42:45.736Z,101461.59
2022-10-04T05:46:15.531Z,101468.69
2022-10-04T05:48:44.295Z,101474.28
2022-10-04T05:51:38.381Z,101481.78
2022-10-04T05:54:09.030Z,101475.44
2022-10-04T05:57:10.657Z,101475.19
2022-10-04T05:59:48.179Z,101474.53
2022-10-04T06:02:22.613Z,101472.91
2022-10-04T06:04:52.512Z,101478.19
2022-10-04T06:07:52.843Z,101474.28
2022-10-04T06:10:43.937Z,101482.34
2022-10-04T06:14:16.863Z,101481.78
2022-10-04T06:17:09.124Z,101490.38
2022-10-04T06:20:05.497Z,101488.97
2022-10-04T06:22:33.206Z,101486.56
2022-10-04T06:25:11.615Z,101486.72
2022-10-04T06:27:53.875Z,101487.09
2022-10-04T06:30:21.718Z,101492.09
2022-10-04T06:34:01.799Z,101492.59
2022-10-04T06:37:28.487Z,101491.28
2022-10-04T06:40:42.786Z,101489.75
2022-10-04T06:43:37.118Z,101499.22
2022-10-04T06:46:27.955Z,101498.22
2022-10-04T06:49:33.424Z,101506.63
2022-10-04T06:52:24.361Z,101502.56
2022-10-04T06:55:22.129Z,101502.50
2022-10-04T06:58:53.167Z,101513.25
2022-10-04T07:01:38.416Z,101510.91
2022-10-04T07:04:24.865Z,101517.69
2022-10-04T07:07:41.968Z,101522.19
2022-10-04T07:10:59.204Z,101514.56
2022-10-04T07:13:40.968Z,101516.41
2022-10-04T07:16:16.973Z,101523.09
2022-10-04T07:19:22.019Z,101528.91
2022-10-04T07:22:10.099Z,101528.06
2022-10-04T07:39:26.048Z,101537.75
2022-10-04T07:42:01.421Z,101546.72
2022-10-04T07:44:43.034Z,101553.06
2022-10-04T07:47:22.344Z,101558.16
2022-10-04T07:49:50.249Z,101558.97
2022-10-04T07:52:28.776Z,101558.28
2022-10-04T07:55:23.868Z,101559.16
2022-10-04T07:58:46.282Z,101562.34
2022-10-04T08:01:54.477Z,101570.78
2022-10-04T08:05:03.629Z,101574.19
2022-10-04T08:08:23.958Z,101567.63
2022-10-04T08:11:27.508Z,101579.22
2022-10-04T08:14:06.904Z,101578.59
2022-10-04T08:17:20.816Z,101581.69
2022-10-04T08:20:07.876Z,101578.31
2022-10-04T08:23:17.086Z,101585.69
2022-10-04T08:26:40.163Z,101584.69
2022-10-04T08:29:45.855Z,101591.69
2022-10-04T08:33:10.217Z,101583.03
2022-10-04T08:36:39.160Z,101594.78
2022-10-04T08:40:03.466Z,101595.13
2022-10-04T08:43:08.787Z,101593.88
2022-10-04T08:46:20.499Z,101597.63
2022-10-04T08:49:11.895Z,101596.22
2022-10-04T08:52:42.456Z,101592.19
2022-10-04T08:56:11.213Z,101594.09
2022-10-04T08:59:24.131Z,101594.09
2022-10-04T09:03:05.061Z,101594.69
2022-10-04T09:06:30.178Z,101592.50
2022-10-04T09:09:53.160Z,101591.41
2022-10-04T09:13:13.256Z,101586.47
2022-10-04T09:16:02.336Z,101592.44
2022-10-04T09:18:56.047Z,101594.06
2022-10-04T09:21:56.850Z,101583.22
2022-10-04T09:24:47.896Z,101587.38
2022-10-04T09:27:59.087Z,101592.16
2022-10-04T09:31:11.997Z,101580.50
2022-10-04T09:34:31.616Z,101579.47
2022-10-04T09:37:42.387Z,101586.28
2022-10-04T09:41:06.031Z,101586.78
2022-10-04T09:44:50.837Z,101589.38
2022-10-04T09:47:38.783Z,101588.19
2022-10-04T09:50:56.640Z,101588.13
2022-10-04T09:54:15.632Z,101582.97
2022-10-04T09:57:14.949Z,101588.19
2022-10-04T10:00:22.144Z,101583.94
2022-10-04T10:03:41.875Z,101584.94
2022-10-04T10:06:43.979Z,101580.00
2022-10-04T10:10:03.296Z,101575.00
2022-10-04T10:13:38.911Z,101576.03
2022-10-04T10:16:49.877Z,101582.34
2022-10-04T10:20:22.956Z,101574.16
2022-10-04T10:23:34.319Z,101575.97
2022-10-04T10:26:06.941Z,101572.88
2022-10-04T10:29:21.012Z,101568.59
2022-10-04T10:32:29.090Z,101581.44
2022-10-04T10:35:27.281Z,101570.59
2022-10-04T10:38:58.439Z,101574.28
2022-10-04T10:41:55.925Z,101571.91
2022-10-04T10:45:09.179Z,101573.38
2022-10-04T10:48:17.785Z,101579.03
2022-10-04T10:51:15.081Z,101579.03
2022-10-04T10:54:42.734Z,101573.88
2022-10-04T10:57:40.523Z,101581.69
2022-10-04T11:00:24.489Z,101577.66
2022-10-04T11:04:03.376Z,101580.81
2022-10-04T11:07:02.836Z,101577.94
2022-10-04T11:10:18.899Z,101584.59
2022-10-04T11:13:34.373Z,101579.38
2022-10-04T11:16:53.831Z,101586.44
2022-10-04T11:20:16.523Z,101576.94
2022-10-04T11:23:35.032Z,101572.25
2022-10-04T11:27:04.139Z,101567.00
2022-10-04T11:29:30.973Z,101577.59
2022-10-04T11:32:00.818Z,101570.03
2022-10-04T11:35:26.986Z,101562.97
2022-10-04T11:38:29.113Z,101562.88
2022-10-04T11:41:47.664Z,101562.16
2022-10-04T11:45:33.356Z,101552.00
2022-10-04T11:49:10.399Z,101555.06
2022-10-04T11:52:27.964Z,101549.47
2022-10-04T11:55:26.067Z,101548.72
2022-10-04T11:58:11.976Z,101547.19
2022-10-04T12:01:26.171Z,101544.53
2022-10-04T12:05:07.072Z,101542.38
2022-10-04T12:08:04.990Z,101543.69
2022-10-04T12:10:42.075Z,101543.03
2022-10-04T12:13:24.514Z,101540.16
2022-10-04T12:16:43.897Z,101542.78
2022-10-04T12:19:54.297Z,101535.25
2022-10-04T12:23:45.220Z,101531.34
2022-10-04T12:27:02.787Z,101545.31
2022-10-04T12:30:09.025Z,101542.59
2022-10-04T12:33:19.336Z,101535.84
2022-10-04T12:36:31.622Z,101537.56
2022-10-04T12:39:51.721Z,101542.03
2022-10-04T12:42:54.217Z,101537.06
2022-10-04T12:46:04.160Z,101532.84
2022-10-04T12:49:15.914Z,101530.41
2022-10-04T12:52:27.113Z,101539.38
2022-10-04T12:55:50.246Z,101543.56
2022-10-04T12:58:43.223Z,101542.34
2022-10-04T13:01:35.255Z,101537.59
2022-10-04T13:04:29.779Z,101538.13
2022-10-04T13:07:40.963Z,101539.25
2022-10-04T13:11:18.360Z,101539.50
2022-10-04T13:15:00.049Z,101531.94
2022-10-04T13:18:49.918Z,101528.97
2022-10-04T13:21:41.493Z,101524.22
2022-10-04T13:24:55.979Z,101516.19
2022-10-04T13:28:00.227Z,101508.50
2022-10-04T13:30:45.346Z,101518.16
2022-10-04T13:33:35.081Z,101514.56
2022-10-04T13:36:22.780Z,101505.22
2022-10-04T13:39:17.158Z,101502.50
2022-10-04T13:42:12.289Z,101494.19
2022-10-04T13:45:10.430Z,101490.78
2022-10-04T13:48:17.005Z,101493.28
2022-10-04T13:51:43.192Z,101493.84
2022-10-04T13:54:50.804Z,101489.03
2022-10-04T13:57:54.260Z,101484.97
2022-10-04T14:01:14.089Z,101474.13
2022-10-04T14:04:39.905Z,101468.22
2022-10-04T14:08:05.272Z,101462.16
2022-10-04T14:11:07.955Z,101459.19
2022-10-04T14:14:17.339Z,101465.56
2022-10-04T14:17:13.966Z,101458.59
2022-10-04T14:20:18.995Z,101449.34
2022-10-04T14:23:45.604Z,101437.69
2022-10-04T14:27:05.864Z,101439.91
2022-10-04T14:30:33.254Z,101443.63
2022-10-04T14:34:06.316Z,101444.34
2022-10-04T14:36:58.857Z,101441.72
2022-10-04T14:39:51.643Z,101444.00
2022-10-04T14:42:56.063Z,101438.25
2022-10-04T14:46:09.157Z,101427.97
2022-10-04T14:48:53.352Z,101434.75
2022-10-04T14:52:04.375Z,101428.72
2022-10-04T14:55:13.454Z,101421.78
2022-10-04T14:58:13.857Z,101429.63
2022-10-04T15:01:23.204Z,101419.72
2022-10-04T15:04:30.563Z,101412.63
2022-10-04T15:07:04.419Z,101411.06
2022-10-04T15:10:23.881Z,101404.00
2022-10-04T15:13:37.104Z,101411.59
2022-10-04T15:16:07.949Z,101400.75
2022-10-04T15:19:13.284Z,101408.34
2022-10-04T15:22:12.467Z,101404.09
2022-10-04T15:24:42.430Z,101409.78
2022-10-04T15:27:35.130Z,101411.38
2022-10-04T15:30:24.293Z,101404.84
2022-10-04T15:33:19.240Z,101414.72
2022-10-04T15:35:58.260Z,101417.38
2022-10-04T15:38:43.655Z,101413.00
2022-10-04T15:41:45.764Z,101416.31
2022-10-04T15:44:45.574Z,101418.97
2022-10-04T15:48:26.414Z,101417.53
2022-10-04T15:51:55.382Z,101418.03
2022-10-04T15:55:11.999Z,101412.41
2022-10-04T15:57:44.787Z,101421.50
2022-10-04T16:00:27.339Z,101418.31
2022-10-04T16:03:31.193Z,101413.84
2022-10-04T16:06:39.789Z,101409.28
2022-10-04T16:09:46.901Z,101402.59
2022-10-04T16:13:04.586Z,101406.22
2022-10-04T16:15:33.244Z,101398.88
2022-10-04T16:19:01.506Z,101400.31
2022-10-04T16:21:47.735Z,101405.06
2022-10-04T16:24:20.564Z,101392.88
2022-10-04T16:26:47.897Z,101395.16
2022-10-04T16:29:44.469Z,101403.78
2022-10-04T16:32:47.466Z,101383.44
2022-10-04T16:35:37.232Z,101391.09
2022-10-04T16:38:13.051Z,101407.28
2022-10-04T16:41:14.188Z,101402.25
2022-10-04T16:43:56.022Z,101405.78
2022-10-04T16:46:46.289Z,101403.41
2022-10-04T16:49:41.037Z,101405.97
2022-10-04T16:52:48.465Z,101413.47
2022-10-04T16:55:50.913Z,101412.78
2022-10-04T16:58:26.854Z,101425.66
2022-10-04T17:01:55.170Z,101411.19
2022-10-04T17:05:02.472Z,101422.44
2022-10-04T17:10:21.104Z,101422.00
2022-10-04T17:13:08.059Z,101429.63
2022-10-04T17:15:59.561Z,101433.34
2022-10-04T17:19:15.988Z,101436.03
2022-10-04T17:22:27.548Z,101440.09
2022-10-04T17:25:32.715Z,101445.50
2022-10-04T17:28:30.449Z,101440.81
2022-10-04T17:31:11.596Z,101438.06
2022-10-04T17:34:34.080Z,101432.91
2022-10-04T17:37:34.449Z,101422.19
2022-10-04T17:40:13.393Z,101433.75
2022-10-04T17:42:45.902Z,101438.41
2022-10-04T17:45:59.257Z,101443.81
2022-10-04T17:49:19.269Z,101439.00
2022-10-04T17:52:24.438Z,101407.34
2022-10-04T17:55:17.472Z,101400.13
2022-10-04T17:58:17.753Z,101403.75
2022-10-04T18:01:25.781Z,101416.44
2022-10-04T18:04:23.461Z,101425.41
2022-10-04T18:07:04.722Z,101420.75
2022-10-04T18:09:43.170Z,101416.44
2022-10-04T18:12:44.384Z,101407.25
2022-10-04T18:16:01.545Z,101400.53
2022-10-04T18:18:39.219Z,101409.97
2022-10-04T18:21:15.706Z,101412.63
2022-10-04T18:24:18.478Z,101411.66
2022-10-04T18:27:21.791Z,101415.84
2022-10-04T18:30:18.825Z,101416.19
2022-10-04T18:32:57.466Z,101408.19
2022-10-04T18:35:31.669Z,101405.44
2022-10-04T18:38:04.647Z,101413.34
2022-10-04T18:40:42.813Z,101404.59
2022-10-04T18:43:50.423Z,101397.31
2022-10-04T18:46:22.838Z,101405.69
2022-10-04T18:48:58.600Z,101404.13
2022-10-04T18:52:12.395Z,101391.59
2022-10-04T18:55:30.206Z,101393.25
2022-10-04T18:58:44.723Z,101399.16
2022-10-04T19:02:03.099Z,101395.00
2022-10-04T19:05:01.353Z,101414.69
2022-10-04T19:08:19.240Z,101402.09
2022-10-04T19:10:55.872Z,101409.91
2022-10-04T19:13:50.103Z,101410.56
2022-10-04T19:16:52.320Z,101407.78
2022-10-04T19:20:21.437Z,101397.63
2022-10-04T19:23:19.554Z,101403.81
2022-10-04T19:26:26.889Z,101408.03
2022-10-04T19:28:44.837Z,101418.06
2022-10-04T19:31:34.023Z,101413.22
2022-10-04T19:34:18.097Z,101417.53
2022-10-04T19:37:19.418Z,101417.03
2022-10-04T19:40:24.521Z,101418.66
2022-10-04T19:43:15.739Z,101409.00
2022-10-04T19:46:41.627Z,101412.59
2022-10-04T19:49:50.953Z,101414.66
2022-10-04T19:52:48.672Z,101419.44
2022-10-04T19:55:42.045Z,101421.66
2022-10-04T19:58:44.923Z,101423.31
2022-10-04T20:01:16.589Z,101426.91
2022-10-04T20:03:44.372Z,101416.69
2022-10-04T20:06:25.201Z,101421.56
2022-10-04T20:09:02.219Z,101417.06
2022-10-04T20:11:41.986Z,101413.78
2022-10-04T20:14:19.701Z,101408.78
2022-10-04T20:16:46.776Z,101411.41
2022-10-04T20:19:29.156Z,101422.03
2022-10-04T20:22:18.514Z,101417.66
2022-10-04T20:24:45.315Z,101416.81
2022-10-04T20:27:28.542Z,101421.91
2022-10-04T20:29:57.019Z,101417.66
2022-10-04T20:32:26.612Z,101403.81
2022-10-04T20:34:56.150Z,101408.63
2022-10-04T20:38:30.474Z,101398.88
2022-10-04T20:40:52.830Z,101411.31
2022-10-04T20:43:22.813Z,101404.53
2022-10-04T20:45:54.215Z,101404.13
2022-10-04T20:48:27.735Z,101401.38
2022-10-04T20:50:55.660Z,101402.34
2022-10-04T20:53:26.845Z,101403.91
2022-10-04T20:56:29.410Z,101400.97
2022-10-04T20:59:04.340Z,101394.94
2022-10-04T21:01:36.663Z,101392.47
2022-10-04T21:04:32.560Z,101393.72
2022-10-04T21:07:06.588Z,101394.25
2022-10-04T21:09:37.151Z,101396.34
2022-10-04T21:12:07.450Z,101393.06
2022-10-04T21:14:37.717Z,101400.66
2022-10-04T21:17:28.595Z,101393.66
2022-10-04T21:19:55.815Z,101394.44
2022-10-04T21:22:31.191Z,101394.25
2022-10-04T21:25:23.492Z,101384.25
2022-10-04T21:27:50.441Z,101385.75
2022-10-04T21:30:24.602Z,101381.13
2022-10-04T21:32:51.844Z,101369.78
2022-10-04T21:35:18.762Z,101367.09
2022-10-04T21:37:45.937Z,101359.84
2022-10-04T21:40:13.877Z,101357.38
2022-10-04T21:42:40.888Z,101359.28
2022-10-04T21:45:08.476Z,101348.66
2022-10-04T21:47:37.148Z,101343.03
2022-10-04T21:50:04.390Z,101354.31
2022-10-04T21:52:31.464Z,101347.91
2022-10-04T21:55:00.819Z,101349.78
2022-10-04T21:57:31.904Z,101346.94
2022-10-04T22:00:05.609Z,101353.78
2022-10-04T22:02:33.982Z,101354.31
2022-10-04T22:05:00.962Z,101345.88
2022-10-04T22:07:28.309Z,101339.59
2022-10-04T22:09:55.217Z,101343.09
2022-10-04T22:12:22.521Z,101340.06
2022-10-04T22:14:49.514Z,101335.75
2022-10-04T22:17:16.505Z,101332.63
2022-10-04T22:19:43.431Z,101329.78
2022-10-04T22:22:17.402Z,101326.22
2022-10-04T22:24:44.527Z,101326.63
2022-10-04T22:27:20.691Z,101331.78
2022-10-04T22:29:47.970Z,101325.22
2022-10-04T22:32:28.982Z,101324.75
2022-10-04T22:35:10.694Z,101325.03
2022-10-04T22:37:37.650Z,101319.75
2022-10-04T22:40:11.689Z,101317.88
2022-10-04T22:42:38.687Z,101320.50
2022-10-04T22:45:15.712Z,101317.38
2022-10-04T22:47:42.678Z,101314.97
2022-10-04T22:50:33.837Z,101310.25
2022-10-04T22:53:23.098Z,101308.59
2022-10-04T22:55:52.165Z,101303.44
2022-10-04T22:58:20.902Z,101304.50
2022-10-04T23:00:49.169Z,101300.94
2022-10-04T23:03:31.509Z,101309.53
2022-10-04T23:06:03.085Z,101307.09
2022-10-04T23:08:30.785Z,101307.84
2022-10-04T23:11:00.584Z,101301.13
2022-10-04T23:13:28.425Z,101298.53
2022-10-04T23:16:02.549Z,101304.78
2022-10-04T23:18:30.281Z,101298.00
2022-10-04T23:21:01.588Z,101300.41
2022-10-04T23:23:31.427Z,101300.72
2022-10-04T23:25:58.373Z,101294.84
2022-10-04T23:28:25.445Z,101290.25
2022-10-04T23:31:16.626Z,101286.16
2022-10-04T23:33:43.658Z,101276.63
2022-10-04T23:36:13.089Z,101276.25
2022-10-04T23:38:51.165Z,101274.03
2022-10-04T23:41:19.694Z,101269.53
2022-10-04T23:43:48.833Z,101271.09
2022-10-04T23:46:23.361Z,101281.47
2022-10-04T23:48:50.522Z,101290.16
2022-10-04T23:51:19.833Z,101292.34
2022-10-04T23:53:49.866Z,101300.50
2022-10-04T23:56:24.975Z,101299.56
2022-10-04T23:58:55.463Z,101304.19
